createdAt,value
2018-08-22T00:01:35.912Z,21.80
2018-08-22T00:04:04.118Z,21.90
2018-08-22T00:06:32.341Z,21.80
2018-08-22T00:09:00.624Z,21.70
2018-08-22T00:11:28.805Z,21.60
2018-08-22T00:13:57.049Z,21.50
2018-08-22T00:16:25.273Z,21.40
2018-08-22T00:18:53.503Z,21.40
2018-08-22T00:21:21.726Z,21.40
2018-08-22T00:23:49.960Z,21.20
2018-08-22T00:26:18.202Z,21.20
2018-08-22T00:28:46.434Z,21.10
2018-08-22T00:31:14.677Z,21.00
2018-08-22T00:33:42.907Z,21.00
2018-08-22T00:36:11.156Z,21.10
2018-08-22T00:38:39.394Z,21.20
2018-08-22T00:41:07.650Z,21.10
2018-08-22T00:43:35.892Z,21.10
2018-08-22T00:46:04.114Z,21.10
2018-08-22T00:48:32.349Z,21.00
2018-08-22T00:51:00.598Z,21.00
2018-08-22T00:53:28.854Z,20.90
2018-08-22T00:55:57.087Z,20.80
2018-08-22T00:58:25.326Z,20.80
2018-08-22T01:00:53.565Z,20.80
2018-08-22T01:03:21.801Z,20.70
2018-08-22T01:05:50.025Z,20.70
2018-08-22T01:08:18.297Z,20.70
2018-08-22T01:10:46.510Z,20.70
2018-08-22T01:13:14.742Z,20.70
2018-08-22T01:15:42.978Z,20.60
2018-08-22T01:18:11.218Z,20.70
2018-08-22T01:20:39.432Z,20.70
2018-08-22T01:23:07.686Z,20.60
2018-08-22T01:25:35.915Z,20.50
2018-08-22T01:28:04.336Z,20.60
2018-08-22T01:30:32.578Z,20.60
2018-08-22T01:33:00.807Z,20.60
2018-08-22T01:35:29.054Z,20.50
2018-08-22T01:37:57.265Z,20.50
2018-08-22T01:40:25.511Z,20.50
2018-08-22T01:42:53.734Z,20.40
2018-08-22T01:45:21.983Z,20.40
2018-08-22T01:47:50.206Z,20.40
2018-08-22T01:50:18.437Z,20.40
2018-08-22T01:52:46.663Z,20.40
2018-08-22T01:55:14.897Z,20.30
2018-08-22T01:57:43.135Z,20.30
2018-08-22T02:02:46.138Z,20.30
2018-08-22T02:05:14.388Z,20.30
2018-08-22T02:07:42.623Z,20.30
2018-08-22T02:10:10.849Z,20.20
2018-08-22T02:12:39.072Z,20.20
2018-08-22T02:15:07.302Z,20.30
2018-08-22T02:17:35.534Z,20.10
2018-08-22T02:20:03.783Z,20.20
2018-08-22T02:22:32.022Z,20.30
2018-08-22T02:25:00.256Z,20.40
2018-08-22T02:27:28.803Z,20.30
2018-08-22T02:29:57.022Z,20.30
2018-08-22T02:32:25.373Z,20.30
2018-08-22T02:34:53.611Z,20.20
2018-08-22T02:37:21.913Z,20.20
2018-08-22T02:39:50.245Z,20.10
2018-08-22T02:42:18.466Z,20.20
2018-08-22T02:44:46.711Z,20.10
2018-08-22T02:47:14.943Z,20.00
2018-08-22T02:49:43.174Z,20.00
2018-08-22T02:52:11.406Z,19.90
2018-08-22T02:54:39.633Z,20.00
2018-08-22T02:57:07.862Z,20.10
2018-08-22T02:59:36.086Z,20.20
2018-08-22T03:02:04.329Z,20.00
2018-08-22T03:04:32.540Z,19.90
2018-08-22T03:07:00.803Z,19.80
2018-08-22T03:09:29.022Z,20.00
2018-08-22T03:11:57.261Z,19.80
2018-08-22T03:14:25.490Z,19.80
2018-08-22T03:16:53.725Z,19.90
2018-08-22T03:19:21.932Z,19.90
2018-08-22T03:21:50.159Z,19.90
2018-08-22T03:24:18.383Z,19.80
2018-08-22T03:26:46.631Z,19.70
2018-08-22T03:29:14.841Z,19.60
2018-08-22T03:31:43.104Z,19.60
2018-08-22T03:34:11.322Z,19.60
2018-08-22T03:36:39.559Z,19.50
2018-08-22T03:39:09.134Z,19.50
2018-08-22T03:41:37.379Z,19.50
2018-08-22T03:44:05.616Z,19.50
2018-08-22T03:46:33.882Z,19.70
2018-08-22T03:49:02.109Z,19.70
2018-08-22T03:51:30.390Z,19.70
2018-08-22T03:53:58.617Z,19.60
2018-08-22T03:59:01.616Z,19.50
2018-08-22T04:01:29.860Z,19.60
2018-08-22T04:03:58.095Z,19.60
2018-08-22T04:06:26.326Z,19.60
2018-08-22T04:08:54.855Z,19.60
2018-08-22T04:11:23.095Z,19.50
2018-08-22T04:13:51.338Z,19.40
2018-08-22T04:16:19.566Z,19.30
2018-08-22T04:18:47.796Z,19.20
2018-08-22T04:21:16.034Z,19.20
2018-08-22T04:23:44.288Z,19.20
2018-08-22T04:26:12.567Z,19.10
2018-08-22T04:28:40.821Z,19.10
2018-08-22T04:31:09.071Z,19.10
2018-08-22T04:33:37.351Z,19.10
2018-08-22T04:36:05.574Z,19.00
2018-08-22T04:38:33.822Z,19.00
2018-08-22T04:41:02.058Z,19.10
2018-08-22T04:43:30.291Z,19.20
2018-08-22T04:45:58.515Z,19.30
2018-08-22T04:48:26.751Z,19.40
2018-08-22T04:50:54.998Z,19.30
2018-08-22T04:53:23.245Z,19.30
2018-08-22T04:55:51.487Z,19.30
2018-08-22T04:58:19.714Z,19.30
2018-08-22T05:00:47.938Z,19.30
2018-08-22T05:03:16.188Z,19.30
2018-08-22T05:05:44.419Z,19.30
2018-08-22T05:08:12.655Z,19.30
2018-08-22T05:10:40.902Z,19.30
2018-08-22T05:13:09.136Z,19.30
2018-08-22T05:15:37.370Z,19.20
2018-08-22T05:18:06.220Z,19.10
2018-08-22T05:20:34.476Z,19.20
2018-08-22T05:23:02.825Z,19.20
2018-08-22T05:25:31.058Z,19.30
2018-08-22T05:27:59.318Z,19.40
2018-08-22T05:30:27.574Z,19.40
2018-08-22T05:32:55.820Z,19.50
2018-08-22T05:35:24.044Z,19.60
2018-08-22T05:37:52.276Z,19.60
2018-08-22T05:40:20.501Z,19.70
2018-08-22T05:42:48.738Z,19.80
2018-08-22T05:45:16.965Z,19.90
2018-08-22T05:47:45.240Z,20.00
2018-08-22T05:50:13.515Z,19.90
2018-08-22T05:52:41.747Z,19.90
2018-08-22T05:55:09.986Z,20.00
2018-08-22T05:57:38.230Z,19.90
2018-08-22T06:00:06.958Z,19.90
2018-08-22T06:02:35.179Z,20.00
2018-08-22T06:05:03.422Z,20.00
2018-08-22T06:07:31.654Z,20.10
2018-08-22T06:09:59.878Z,20.20
2018-08-22T06:12:28.099Z,20.20
2018-08-22T06:14:56.328Z,20.30
2018-08-22T06:17:24.557Z,20.40
2018-08-22T06:19:52.800Z,20.40
2018-08-22T06:22:21.026Z,20.50
2018-08-22T06:24:49.276Z,20.60
2018-08-22T06:27:17.495Z,20.60
2018-08-22T06:29:45.739Z,20.70
2018-08-22T06:32:13.994Z,20.80
2018-08-22T06:34:42.240Z,21.00
2018-08-22T06:37:10.454Z,21.00
2018-08-22T06:39:38.694Z,21.20
2018-08-22T06:42:06.934Z,21.30
2018-08-22T06:44:35.174Z,21.40
2018-08-22T06:47:03.402Z,21.50
2018-08-22T06:49:31.636Z,21.60
2018-08-22T06:51:59.852Z,21.70
2018-08-22T06:54:28.087Z,21.70
2018-08-22T06:56:56.341Z,21.80
2018-08-22T06:59:24.599Z,21.90
2018-08-22T07:01:52.840Z,22.00
2018-08-22T07:04:21.060Z,22.10
2018-08-22T07:06:49.308Z,22.20
2018-08-22T07:09:17.519Z,22.30
2018-08-22T07:11:45.761Z,22.30
2018-08-22T07:14:13.986Z,22.40
2018-08-22T07:16:42.224Z,22.60
2018-08-22T07:19:10.452Z,22.70
2018-08-22T07:21:38.690Z,22.80
2018-08-22T07:24:06.928Z,22.90
2018-08-22T07:26:35.153Z,23.00
2018-08-22T07:29:03.386Z,23.20
2018-08-22T07:31:31.636Z,23.30
2018-08-22T07:33:59.858Z,23.40
2018-08-22T07:36:28.139Z,23.50
2018-08-22T07:38:56.363Z,23.70
2018-08-22T07:41:24.603Z,24.00
2018-08-22T07:43:52.833Z,24.40
2018-08-22T07:46:21.076Z,24.90
2018-08-22T07:48:49.298Z,25.40
2018-08-22T07:51:17.550Z,26.10
2018-08-22T07:53:45.787Z,26.80
2018-08-22T07:56:14.024Z,27.40
2018-08-22T07:58:42.285Z,28.00
2018-08-22T08:01:10.529Z,28.30
2018-08-22T08:03:38.751Z,28.80
2018-08-22T08:06:06.985Z,29.10
2018-08-22T08:08:35.232Z,29.40
2018-08-22T08:11:03.544Z,29.70
2018-08-22T08:13:31.709Z,30.10
2018-08-22T08:15:59.940Z,30.10
2018-08-22T08:18:28.174Z,30.10
2018-08-22T08:20:56.420Z,30.10
2018-08-22T08:23:24.651Z,30.40
2018-08-22T08:25:52.872Z,30.60
2018-08-22T08:28:21.110Z,31.10
2018-08-22T08:30:49.364Z,30.90
2018-08-22T08:33:17.609Z,30.90
2018-08-22T08:35:45.905Z,31.00
2018-08-22T08:38:14.096Z,31.10
2018-08-22T08:40:42.323Z,31.40
2018-08-22T08:43:10.552Z,31.30
2018-08-22T08:45:39.198Z,31.40
2018-08-22T08:48:07.451Z,31.60
2018-08-22T08:50:35.683Z,31.60
2018-08-22T08:53:03.905Z,31.60
2018-08-22T08:55:32.208Z,31.80
2018-08-22T08:58:00.445Z,31.80
2018-08-22T09:00:28.686Z,31.70
2018-08-22T09:02:56.924Z,31.90
2018-08-22T09:05:25.137Z,31.90
2018-08-22T09:07:53.389Z,32.10
2018-08-22T09:10:21.623Z,32.30
2018-08-22T09:12:49.866Z,32.70
2018-08-22T09:15:18.103Z,32.80
2018-08-22T09:17:46.348Z,32.90
2018-08-22T09:20:14.601Z,32.90
2018-08-22T09:22:42.842Z,32.90
2018-08-22T09:25:11.079Z,33.00
2018-08-22T09:27:39.350Z,33.00
2018-08-22T09:30:08.396Z,33.00
2018-08-22T09:32:36.639Z,33.10
2018-08-22T09:35:04.883Z,33.30
2018-08-22T09:37:33.119Z,33.30
2018-08-22T09:40:01.475Z,33.20
2018-08-22T09:42:29.624Z,33.40
2018-08-22T09:44:57.859Z,33.40
2018-08-22T09:47:26.088Z,33.50
2018-08-22T09:49:54.330Z,33.50
2018-08-22T09:52:22.564Z,33.80
2018-08-22T09:54:58.753Z,33.80
2018-08-22T09:57:33.419Z,33.90
2018-08-22T10:00:01.687Z,34.20
2018-08-22T10:02:29.905Z,34.20
2018-08-22T10:04:59.321Z,34.40
2018-08-22T10:07:27.663Z,34.50
2018-08-22T10:09:55.829Z,34.40
2018-08-22T10:12:24.041Z,34.50
2018-08-22T10:14:52.284Z,34.70
2018-08-22T10:17:20.514Z,35.00
2018-08-22T10:19:48.733Z,35.10
2018-08-22T10:22:16.976Z,35.10
2018-08-22T10:24:45.202Z,35.20
2018-08-22T10:27:13.447Z,35.30
2018-08-22T10:29:41.673Z,35.10
2018-08-22T10:32:09.920Z,35.10
2018-08-22T10:34:38.155Z,35.30
2018-08-22T10:37:06.379Z,35.50
2018-08-22T10:39:34.628Z,35.70
2018-08-22T10:42:02.828Z,35.80
2018-08-22T10:44:31.095Z,35.90
2018-08-22T10:46:59.278Z,36.00
2018-08-22T10:49:27.525Z,36.00
2018-08-22T10:51:55.743Z,36.00
2018-08-22T10:54:23.993Z,36.00
2018-08-22T10:56:52.220Z,36.10
2018-08-22T10:59:20.464Z,36.30
2018-08-22T11:01:48.705Z,36.40
2018-08-22T11:04:16.926Z,36.70
2018-08-22T11:06:45.151Z,36.70
2018-08-22T11:09:13.397Z,36.80
2018-08-22T11:11:41.630Z,36.60
2018-08-22T11:14:10.070Z,36.70
2018-08-22T11:16:38.424Z,36.90
2018-08-22T11:19:06.695Z,37.00
2018-08-22T11:21:46.338Z,37.00
2018-08-22T11:24:25.999Z,37.10
2018-08-22T11:27:05.501Z,36.90
2018-08-22T11:29:45.130Z,37.00
2018-08-22T11:32:24.673Z,36.90
2018-08-22T11:34:52.510Z,36.90
2018-08-22T11:37:20.742Z,36.70
2018-08-22T11:39:50.382Z,36.60
2018-08-22T11:42:18.857Z,36.30
2018-08-22T11:44:47.098Z,36.30
2018-08-22T11:47:15.336Z,36.30
2018-08-22T11:49:43.585Z,35.80
2018-08-22T11:52:11.812Z,35.70
2018-08-22T11:54:40.055Z,35.60
2018-08-22T11:57:08.276Z,35.50
2018-08-22T11:59:36.501Z,35.60
2018-08-22T12:02:04.762Z,35.60
2018-08-22T12:04:33.010Z,35.60
2018-08-22T12:07:01.252Z,35.60
2018-08-22T12:09:29.470Z,35.60
2018-08-22T12:11:57.706Z,35.60
2018-08-22T12:14:25.930Z,35.60
2018-08-22T12:16:54.209Z,35.60
2018-08-22T12:19:22.432Z,35.60
2018-08-22T12:21:50.676Z,35.50
2018-08-22T12:24:18.916Z,35.30
2018-08-22T12:26:47.145Z,35.30
2018-08-22T12:29:15.358Z,35.30
2018-08-22T12:31:43.597Z,35.10
2018-08-22T12:34:11.824Z,35.10
2018-08-22T12:36:40.059Z,35.20
2018-08-22T12:39:08.335Z,35.30
2018-08-22T12:41:36.584Z,35.20
2018-08-22T12:44:04.822Z,35.20
2018-08-22T12:46:33.068Z,35.10
2018-08-22T12:49:01.290Z,34.90
2018-08-22T12:51:29.535Z,34.80
2018-08-22T12:53:57.758Z,34.60
2018-08-22T12:56:26.010Z,34.50
2018-08-22T12:58:54.239Z,34.50
2018-08-22T13:01:22.472Z,34.50
2018-08-22T13:03:50.703Z,34.30
2018-08-22T13:06:18.953Z,34.20
2018-08-22T13:08:47.169Z,34.10
2018-08-22T13:11:15.461Z,34.10
2018-08-22T13:13:43.699Z,34.00
2018-08-22T13:16:14.992Z,34.00
2018-08-22T13:18:46.251Z,33.90
2018-08-22T13:21:14.586Z,33.80
2018-08-22T13:23:42.828Z,33.80
2018-08-22T13:26:11.084Z,33.90
2018-08-22T13:28:45.938Z,33.80
2018-08-22T13:31:14.183Z,33.80
2018-08-22T13:33:42.416Z,33.70
2018-08-22T13:36:10.683Z,33.60
2018-08-22T13:38:38.878Z,33.60
2018-08-22T13:41:07.108Z,33.70
2018-08-22T13:43:35.330Z,33.70
2018-08-22T13:46:03.558Z,33.50
2018-08-22T13:48:31.788Z,33.50
2018-08-22T13:51:00.010Z,33.50
2018-08-22T13:53:28.253Z,33.50
2018-08-22T13:55:56.511Z,33.30
2018-08-22T13:58:24.732Z,33.30
2018-08-22T14:00:52.948Z,33.20
2018-08-22T14:03:21.226Z,33.20
2018-08-22T14:05:49.454Z,33.20
2018-08-22T14:08:17.689Z,33.20
2018-08-22T14:10:45.936Z,33.10
2018-08-22T14:13:14.183Z,33.10
2018-08-22T14:15:42.412Z,33.10
2018-08-22T14:18:10.637Z,32.90
2018-08-22T14:20:38.871Z,32.90
2018-08-22T14:23:07.708Z,32.90
2018-08-22T14:25:35.938Z,33.00
2018-08-22T14:28:04.243Z,33.00
2018-08-22T14:30:32.462Z,33.00
2018-08-22T14:33:00.714Z,33.00
2018-08-22T14:35:28.942Z,32.90
2018-08-22T14:37:57.183Z,32.90
2018-08-22T14:40:25.399Z,32.90
2018-08-22T14:42:53.645Z,32.90
2018-08-22T14:45:21.891Z,32.90
2018-08-22T14:47:50.156Z,32.80
2018-08-22T14:50:18.367Z,32.80
2018-08-22T14:52:46.628Z,32.70
2018-08-22T14:55:14.857Z,32.60
2018-08-22T14:57:43.087Z,32.60
2018-08-22T15:00:11.324Z,32.60
2018-08-22T15:02:39.749Z,32.60
2018-08-22T15:05:07.967Z,32.70
2018-08-22T15:07:36.574Z,32.70
2018-08-22T15:10:04.850Z,32.70
2018-08-22T15:12:33.143Z,32.70
2018-08-22T15:15:01.317Z,32.70
2018-08-22T15:17:29.569Z,32.70
2018-08-22T15:19:57.792Z,32.70
2018-08-22T15:22:26.098Z,32.70
2018-08-22T15:24:54.335Z,32.70
2018-08-22T15:27:22.551Z,32.70
2018-08-22T15:29:50.791Z,32.70
2018-08-22T15:32:19.025Z,32.70
2018-08-22T15:34:51.300Z,32.70
2018-08-22T15:37:19.882Z,32.70
2018-08-22T15:39:48.272Z,32.60
2018-08-22T15:42:16.503Z,32.60
2018-08-22T15:44:44.787Z,32.50
2018-08-22T15:47:13.576Z,32.50
2018-08-22T15:49:41.806Z,32.50
2018-08-22T15:52:10.039Z,32.40
2018-08-22T15:54:38.275Z,32.50
2018-08-22T15:57:06.496Z,32.50
2018-08-22T15:59:34.731Z,32.40
2018-08-22T16:02:02.989Z,32.40
2018-08-22T16:04:41.898Z,32.40
2018-08-22T16:07:10.130Z,32.40
2018-08-22T16:09:38.903Z,32.40
2018-08-22T16:12:07.122Z,32.40
2018-08-22T16:14:35.360Z,32.30
2018-08-22T16:17:03.584Z,32.40
2018-08-22T16:19:32.111Z,32.30
2018-08-22T16:22:00.336Z,32.30
2018-08-22T16:24:29.337Z,32.30
2018-08-22T16:26:57.559Z,32.30
2018-08-22T16:29:25.883Z,32.20
2018-08-22T16:31:55.729Z,32.30
2018-08-22T16:34:23.955Z,32.20
2018-08-22T16:36:52.174Z,32.20
2018-08-22T16:39:36.131Z,32.20
2018-08-22T16:42:04.357Z,32.20
2018-08-22T16:44:32.608Z,32.10
2018-08-22T16:47:00.828Z,32.10
2018-08-22T16:49:29.124Z,32.00
2018-08-22T16:51:57.294Z,32.00
2018-08-22T16:54:25.538Z,32.00
2018-08-22T16:56:53.770Z,32.00
2018-08-22T16:59:22.029Z,31.90
2018-08-22T17:01:51.314Z,31.80
2018-08-22T17:04:19.541Z,31.80
2018-08-22T17:06:47.999Z,31.70
2018-08-22T17:09:16.218Z,31.60
2018-08-22T17:11:44.451Z,31.60
2018-08-22T17:14:12.710Z,31.50
2018-08-22T17:16:40.930Z,31.40
2018-08-22T17:19:09.167Z,31.40
2018-08-22T17:21:37.377Z,31.30
2018-08-22T17:24:05.727Z,31.20
2018-08-22T17:26:33.964Z,31.10
2018-08-22T17:29:02.194Z,31.00
2018-08-22T17:31:30.814Z,31.00
2018-08-22T17:34:00.308Z,30.90
2018-08-22T17:36:28.555Z,30.80
2018-08-22T17:38:57.658Z,30.80
2018-08-22T17:41:27.204Z,30.70
2018-08-22T17:44:00.377Z,30.70
2018-08-22T17:46:30.791Z,30.50
2018-08-22T17:48:59.190Z,30.50
2018-08-22T17:51:27.578Z,30.40
2018-08-22T17:53:55.803Z,30.30
2018-08-22T17:56:25.151Z,30.30
2018-08-22T17:58:54.275Z,30.20
2018-08-22T18:01:23.242Z,30.10
2018-08-22T18:03:53.646Z,30.00
2018-08-22T18:06:21.955Z,29.90
2018-08-22T18:08:50.126Z,29.70
2018-08-22T18:11:18.367Z,29.50
2018-08-22T18:13:46.621Z,29.40
2018-08-22T18:16:14.929Z,29.20
2018-08-22T18:18:43.146Z,29.10
2018-08-22T18:21:11.386Z,28.90
2018-08-22T18:23:44.946Z,28.80
2018-08-22T18:26:13.483Z,28.60
2018-08-22T18:28:41.733Z,28.50
2018-08-22T18:31:09.990Z,28.40
2018-08-22T18:33:50.495Z,28.30
2018-08-22T18:36:18.754Z,28.30
2018-08-22T18:39:07.327Z,28.30
2018-08-22T18:41:35.712Z,28.30
2018-08-22T18:44:04.179Z,28.30
2018-08-22T18:46:32.432Z,28.30
2018-08-22T18:49:01.302Z,28.20
2018-08-22T18:51:36.384Z,28.10
2018-08-22T18:54:05.069Z,28.00
2018-08-22T18:56:33.307Z,27.90
2018-08-22T18:59:35.800Z,27.70
2018-08-22T19:02:04.031Z,27.60
2018-08-22T19:04:32.278Z,27.50
2018-08-22T19:07:00.527Z,27.40
2018-08-22T19:09:28.762Z,27.30
2018-08-22T19:11:57.008Z,27.30
2018-08-22T19:14:37.172Z,27.20
2018-08-22T19:17:05.483Z,27.10
2018-08-22T19:19:37.939Z,27.10
2018-08-22T19:22:06.380Z,27.20
2018-08-22T19:24:34.602Z,27.10
2018-08-22T19:27:02.860Z,27.00
2018-08-22T19:29:31.103Z,26.90
2018-08-22T19:31:59.357Z,26.80
2018-08-22T19:34:27.572Z,26.80
2018-08-22T19:36:55.824Z,26.70
2018-08-22T19:39:24.048Z,26.60
2018-08-22T19:41:52.286Z,26.50
2018-08-22T19:44:20.514Z,26.50
2018-08-22T19:46:48.774Z,26.40
2018-08-22T19:49:17.000Z,26.20
2018-08-22T19:51:45.231Z,26.10
2018-08-22T19:54:13.482Z,26.10
2018-08-22T19:56:41.713Z,26.10
2018-08-22T19:59:09.935Z,26.00
2018-08-22T20:01:38.425Z,25.90
2018-08-22T20:04:06.657Z,25.80
2018-08-22T20:06:34.883Z,25.80
2018-08-22T20:09:03.138Z,25.80
2018-08-22T20:11:32.757Z,25.70
2018-08-22T20:14:07.379Z,25.60
2018-08-22T20:16:35.625Z,25.60
2018-08-22T20:19:04.938Z,25.40
2018-08-22T20:21:35.279Z,25.40
2018-08-22T20:24:04.969Z,25.30
2018-08-22T20:26:33.514Z,25.40
2018-08-22T20:29:03.071Z,25.40
2018-08-22T20:31:31.483Z,25.30
2018-08-22T20:34:08.115Z,25.30
2018-08-22T20:36:36.416Z,25.20
2018-08-22T20:39:10.915Z,25.10
2018-08-22T20:41:39.922Z,25.10
2018-08-22T20:44:11.873Z,25.10
2018-08-22T20:46:40.794Z,24.90
2018-08-22T20:49:09.016Z,25.00
2018-08-22T20:51:37.247Z,25.00
2018-08-22T20:54:08.705Z,24.80
2018-08-22T20:56:40.444Z,24.70
2018-08-22T20:59:08.671Z,24.50
2018-08-22T21:01:43.226Z,24.60
2018-08-22T21:04:11.508Z,24.60
2018-08-22T21:06:39.730Z,24.50
2018-08-22T21:09:08.031Z,24.30
2018-08-22T21:11:38.190Z,24.20
2018-08-22T21:14:06.750Z,24.30
2018-08-22T21:16:35.249Z,24.30
2018-08-22T21:19:03.611Z,24.20
2018-08-22T21:21:31.822Z,24.20
2018-08-22T21:24:00.096Z,24.20
2018-08-22T21:26:42.578Z,24.20
2018-08-22T21:29:10.811Z,24.20
2018-08-22T21:31:39.072Z,24.10
2018-08-22T21:34:13.078Z,24.10
2018-08-22T21:36:43.258Z,24.00
2018-08-22T21:39:16.918Z,24.00
2018-08-22T21:41:46.032Z,24.00
2018-08-22T21:44:17.216Z,24.00
2018-08-22T21:46:45.528Z,24.00
2018-08-22T21:49:14.898Z,24.10
2018-08-22T21:51:43.576Z,23.90
2018-08-22T21:54:12.584Z,23.90
2018-08-22T21:56:41.049Z,23.90
2018-08-22T21:59:10.084Z,23.60
2018-08-22T22:01:47.357Z,23.40
2018-08-22T22:04:21.349Z,23.40
2018-08-22T22:06:50.031Z,23.40
2018-08-22T22:09:18.271Z,23.30
2018-08-22T22:11:46.682Z,23.40
2018-08-22T22:14:20.167Z,23.30
2018-08-22T22:16:48.382Z,23.10
2018-08-22T22:19:16.613Z,23.10
2018-08-22T22:21:44.833Z,23.00
2018-08-22T22:24:13.067Z,23.00
2018-08-22T22:26:41.292Z,23.00
2018-08-22T22:29:09.522Z,22.90
2018-08-22T22:31:37.751Z,22.90
2018-08-22T22:34:06.011Z,23.10
2018-08-22T22:36:34.264Z,23.10
2018-08-22T22:39:02.538Z,23.00
2018-08-22T22:41:31.522Z,23.00
2018-08-22T22:43:59.761Z,22.80
2018-08-22T22:46:27.975Z,22.80
2018-08-22T22:48:56.203Z,22.90
2018-08-22T22:51:24.430Z,22.90
2018-08-22T22:53:52.663Z,22.70
2018-08-22T22:56:20.879Z,22.80
2018-08-22T22:58:49.119Z,22.80
2018-08-22T23:01:17.345Z,22.80
2018-08-22T23:03:45.565Z,22.80
2018-08-22T23:06:13.792Z,22.70
2018-08-22T23:08:42.049Z,22.70
2018-08-22T23:11:10.279Z,22.70
2018-08-22T23:13:38.503Z,22.70
2018-08-22T23:16:06.736Z,22.60
2018-08-22T23:18:35.047Z,22.50
2018-08-22T23:21:03.191Z,22.50
2018-08-22T23:23:35.505Z,22.60
2018-08-22T23:26:23.610Z,22.60
2018-08-22T23:28:51.847Z,22.60
2018-08-22T23:31:20.832Z,22.60
2018-08-22T23:33:49.145Z,22.70
2018-08-22T23:36:17.375Z,22.70
2018-08-22T23:38:45.587Z,22.70
2018-08-22T23:41:13.833Z,22.80
2018-08-22T23:43:50.267Z,22.80
2018-08-22T23:46:18.588Z,22.60
2018-08-22T23:48:55.532Z,22.50
2018-08-22T23:51:23.788Z,22.40
2018-08-22T23:53:52.049Z,22.50
2018-08-22T23:56:25.914Z,22.50
2018-08-22T23:58:54.800Z,22.50
